createdAt,value
2019-03-29T00:01:50.326Z,67.80
2019-03-29T00:04:21.281Z,76.00
2019-03-29T00:06:51.613Z,74.63
2019-03-29T00:09:21.513Z,77.47
2019-03-29T00:11:51.725Z,73.33
2019-03-29T00:14:23.661Z,62.97
2019-03-29T00:16:54.377Z,71.60
2019-03-29T00:19:25.671Z,77.30
2019-03-29T00:21:56.072Z,60.20
2019-03-29T00:24:25.951Z,85.53
2019-03-29T00:26:55.908Z,67.57
2019-03-29T00:29:26.308Z,73.23
2019-03-29T00:31:56.517Z,74.43
2019-03-29T00:34:27.469Z,75.80
2019-03-29T00:36:58.309Z,76.17
2019-03-29T00:39:28.381Z,75.33
2019-03-29T00:41:59.046Z,86.10
2019-03-29T00:44:29.235Z,84.73
2019-03-29T00:46:59.697Z,86.43
2019-03-29T00:49:30.269Z,81.70
2019-03-29T00:52:00.448Z,69.17
2019-03-29T00:54:30.717Z,76.10
2019-03-29T00:57:01.729Z,89.47
2019-03-29T00:59:32.147Z,83.13
2019-03-29T01:02:03.505Z,79.40
2019-03-29T01:04:33.418Z,79.90
2019-03-29T01:07:04.229Z,82.07
2019-03-29T01:09:35.374Z,84.03
2019-03-29T01:12:06.962Z,85.03
2019-03-29T01:14:38.374Z,85.90
2019-03-29T01:17:08.994Z,78.87
2019-03-29T01:19:39.048Z,72.27
2019-03-29T01:22:09.373Z,72.73
2019-03-29T01:24:40.250Z,70.00
2019-03-29T01:27:10.802Z,62.43
2019-03-29T01:29:41.782Z,71.97
2019-03-29T01:32:12.114Z,74.60
2019-03-29T01:34:43.127Z,68.90
2019-03-29T01:37:14.119Z,77.53
2019-03-29T01:39:44.750Z,68.83
2019-03-29T01:42:15.035Z,69.90
2019-03-29T01:44:45.483Z,73.60
2019-03-29T01:47:15.749Z,78.40
2019-03-29T01:49:46.437Z,77.67
2019-03-29T01:52:16.985Z,82.13
2019-03-29T01:54:47.526Z,73.67
2019-03-29T01:57:18.459Z,78.67
2019-03-29T01:59:48.862Z,77.53
2019-03-29T02:02:20.268Z,79.07
2019-03-29T02:04:51.951Z,68.57
2019-03-29T02:07:22.483Z,68.10
2019-03-29T02:09:53.867Z,72.30
2019-03-29T02:12:24.502Z,74.87
2019-03-29T02:14:54.792Z,74.53
2019-03-29T02:17:25.421Z,75.70
2019-03-29T02:19:55.588Z,80.17
2019-03-29T02:22:26.229Z,77.17
2019-03-29T02:24:56.462Z,83.47
2019-03-29T02:27:27.236Z,80.50
2019-03-29T02:29:59.485Z,77.30
2019-03-29T02:32:29.774Z,84.33
2019-03-29T02:35:00.490Z,76.10
2019-03-29T02:37:31.392Z,78.27
2019-03-29T02:40:03.971Z,79.10
2019-03-29T02:42:34.610Z,79.93
2019-03-29T02:45:04.846Z,83.63
2019-03-29T02:47:34.822Z,78.43
2019-03-29T02:50:05.918Z,71.83
2019-03-29T02:52:36.455Z,69.20
2019-03-29T02:55:06.673Z,81.90
2019-03-29T02:57:37.734Z,81.90
2019-03-29T03:00:08.943Z,76.57
2019-03-29T03:02:39.530Z,73.20
2019-03-29T03:05:10.330Z,81.77
2019-03-29T03:07:41.043Z,77.47
2019-03-29T03:10:11.907Z,73.17
2019-03-29T03:12:42.245Z,76.87
2019-03-29T03:15:13.283Z,91.70
2019-03-29T03:17:44.350Z,75.83
2019-03-29T03:20:15.853Z,79.70
2019-03-29T03:22:46.635Z,81.83
2019-03-29T03:25:17.667Z,85.10
2019-03-29T03:27:48.535Z,75.53
2019-03-29T03:30:19.416Z,73.90
2019-03-29T03:32:50.491Z,63.60
2019-03-29T03:35:20.925Z,73.77
2019-03-29T03:37:50.953Z,79.07
2019-03-29T03:40:21.720Z,70.70
2019-03-29T03:42:52.149Z,70.67
2019-03-29T03:45:22.066Z,74.23
2019-03-29T03:47:53.137Z,63.63
2019-03-29T03:50:37.256Z,81.37
2019-03-29T03:53:08.143Z,61.03
2019-03-29T03:55:39.636Z,52.67
2019-03-29T03:58:10.791Z,65.50
2019-03-29T04:00:57.705Z,62.17
2019-03-29T04:03:28.378Z,74.70
2019-03-29T04:05:59.104Z,74.00
2019-03-29T04:08:29.168Z,69.50
2019-03-29T04:11:00.299Z,57.80
2019-03-29T04:13:30.614Z,75.90
2019-03-29T04:16:00.989Z,83.30
2019-03-29T04:18:31.805Z,65.90
2019-03-29T04:21:02.158Z,71.20
2019-03-29T04:23:32.767Z,73.00
2019-03-29T04:26:03.438Z,67.47
2019-03-29T04:28:33.829Z,71.93
2019-03-29T04:31:04.061Z,79.77
2019-03-29T04:33:34.615Z,62.23
2019-03-29T04:36:05.182Z,60.50
2019-03-29T04:38:35.117Z,63.63
2019-03-29T04:41:05.972Z,74.10
2019-03-29T04:43:36.619Z,71.30
2019-03-29T04:46:07.140Z,62.83
2019-03-29T04:48:37.514Z,68.73
2019-03-29T04:51:08.186Z,60.07
2019-03-29T04:53:38.514Z,63.60
2019-03-29T04:56:08.831Z,67.87
2019-03-29T04:58:39.468Z,69.60
2019-03-29T05:01:09.917Z,64.40
2019-03-29T05:03:40.738Z,74.50
2019-03-29T05:06:11.081Z,71.00
2019-03-29T05:08:41.691Z,64.53
2019-03-29T05:11:11.997Z,59.70
2019-03-29T05:13:42.744Z,52.70
2019-03-29T05:16:13.309Z,81.47
2019-03-29T05:18:44.037Z,61.57
2019-03-29T05:21:14.306Z,51.20
2019-03-29T05:23:45.206Z,61.47
2019-03-29T05:26:15.467Z,51.47
2019-03-29T05:28:45.463Z,39.40
2019-03-29T05:31:15.665Z,69.43
2019-03-29T05:33:45.986Z,67.77
2019-03-29T05:36:16.400Z,70.83
2019-03-29T05:38:46.797Z,54.27
2019-03-29T05:41:17.235Z,66.93
2019-03-29T05:43:48.037Z,63.43
2019-03-29T05:46:18.573Z,60.90
2019-03-29T05:48:49.801Z,54.83
2019-03-29T05:51:20.344Z,54.17
2019-03-29T05:53:51.386Z,52.80
2019-03-29T05:56:21.631Z,53.20
2019-03-29T05:58:51.612Z,52.47
2019-03-29T06:01:21.905Z,59.50
2019-03-29T06:03:52.726Z,58.47
2019-03-29T06:06:23.286Z,51.30
2019-03-29T06:08:53.929Z,43.03
2019-03-29T06:11:26.417Z,60.97
2019-03-29T06:13:57.171Z,55.43
2019-03-29T06:16:38.375Z,49.47
2019-03-29T06:19:00.561Z,52.40
2019-03-29T06:21:30.592Z,57.27
2019-03-29T06:24:01.214Z,57.20
2019-03-29T06:26:31.827Z,63.23
2019-03-29T06:29:01.849Z,49.03
2019-03-29T06:31:32.224Z,49.77
2019-03-29T06:34:03.430Z,53.07
2019-03-29T06:36:34.191Z,50.80
2019-03-29T06:39:06.140Z,53.90
2019-03-29T06:41:36.752Z,42.57
2019-03-29T06:44:06.933Z,46.53
2019-03-29T06:46:37.712Z,51.20
2019-03-29T06:49:07.930Z,48.83
2019-03-29T06:51:38.214Z,37.93
2019-03-29T06:54:08.764Z,45.63
2019-03-29T06:56:39.427Z,50.37
2019-03-29T06:59:09.725Z,48.80
2019-03-29T07:01:40.328Z,45.63
2019-03-29T07:04:10.636Z,43.97
2019-03-29T07:06:41.338Z,52.10
2019-03-29T07:09:11.289Z,46.57
2019-03-29T07:11:41.473Z,42.30
2019-03-29T07:14:11.562Z,44.73
2019-03-29T07:16:41.774Z,46.80
2019-03-29T07:19:15.112Z,36.47
2019-03-29T07:21:45.563Z,48.03
2019-03-29T07:24:15.532Z,40.63
2019-03-29T07:26:46.290Z,35.43
2019-03-29T07:29:17.437Z,38.63
2019-03-29T07:31:47.380Z,35.57
2019-03-29T07:34:17.821Z,26.30
2019-03-29T07:36:48.208Z,30.80
2019-03-29T07:39:19.405Z,28.77
2019-03-29T07:41:49.677Z,27.90
2019-03-29T07:44:19.649Z,30.13
2019-03-29T07:46:51.034Z,29.70
2019-03-29T07:49:20.994Z,27.53
2019-03-29T07:51:51.474Z,31.47
2019-03-29T07:54:21.765Z,30.90
2019-03-29T07:56:52.373Z,31.40
2019-03-29T07:59:23.354Z,25.73
2019-03-29T08:01:53.822Z,22.40
2019-03-29T08:04:24.225Z,19.67
2019-03-29T08:06:55.274Z,17.10
2019-03-29T08:09:28.780Z,17.93
2019-03-29T08:12:02.610Z,24.00
2019-03-29T08:14:32.801Z,18.27
2019-03-29T08:17:03.914Z,21.57
2019-03-29T08:19:37.112Z,22.57
2019-03-29T08:22:06.250Z,27.00
2019-03-29T08:24:36.663Z,23.47
2019-03-29T08:27:07.468Z,25.30
2019-03-29T08:29:37.475Z,26.67
2019-03-29T08:32:07.790Z,28.77
2019-03-29T08:34:38.410Z,26.90
2019-03-29T08:37:09.368Z,32.60
2019-03-29T08:39:39.993Z,18.30
2019-03-29T08:42:10.650Z,30.60
2019-03-29T08:44:41.566Z,33.83
2019-03-29T08:47:11.838Z,27.03
2019-03-29T08:49:42.113Z,20.40
2019-03-29T08:52:12.398Z,30.93
2019-03-29T08:54:42.768Z,22.33
2019-03-29T08:57:13.091Z,24.10
2019-03-29T08:59:43.959Z,25.50
2019-03-29T09:02:14.003Z,27.83
2019-03-29T09:04:44.758Z,27.13
2019-03-29T09:07:16.134Z,23.80
2019-03-29T09:09:47.176Z,24.80
2019-03-29T09:12:18.076Z,25.37
2019-03-29T09:14:48.263Z,26.00
2019-03-29T09:17:18.293Z,22.40
2019-03-29T09:19:48.292Z,27.80
2019-03-29T09:22:20.205Z,18.50
2019-03-29T09:24:51.187Z,22.70
2019-03-29T09:27:21.778Z,26.77
2019-03-29T09:29:55.441Z,27.20
2019-03-29T09:32:26.053Z,20.50
2019-03-29T09:34:56.780Z,24.63
2019-03-29T09:37:27.054Z,22.93
2019-03-29T09:39:57.036Z,20.43
2019-03-29T09:42:29.527Z,28.70
2019-03-29T09:44:59.823Z,18.47
2019-03-29T09:47:38.281Z,26.10
2019-03-29T09:50:02.751Z,16.00
2019-03-29T09:52:33.966Z,30.90
2019-03-29T09:55:04.606Z,20.53
2019-03-29T09:57:37.702Z,21.03
2019-03-29T10:00:19.238Z,14.97
2019-03-29T10:02:40.852Z,17.33
2019-03-29T10:05:11.746Z,17.63
2019-03-29T10:07:42.053Z,35.47
2019-03-29T10:10:13.013Z,17.97
2019-03-29T10:12:44.159Z,20.23
2019-03-29T10:15:15.326Z,17.60
2019-03-29T10:17:46.213Z,12.67
2019-03-29T10:20:16.714Z,15.10
2019-03-29T10:22:47.451Z,15.07
2019-03-29T10:25:19.995Z,17.40
2019-03-29T10:27:50.444Z,17.17
2019-03-29T10:30:40.989Z,14.90
2019-03-29T10:33:10.983Z,17.17
2019-03-29T10:35:51.458Z,18.07
2019-03-29T10:38:17.971Z,17.07
2019-03-29T10:40:47.219Z,16.67
2019-03-29T10:43:18.058Z,13.50
2019-03-29T10:45:51.242Z,16.87
2019-03-29T10:48:21.597Z,16.93
2019-03-29T10:50:52.203Z,15.03
2019-03-29T10:53:22.552Z,16.27
2019-03-29T10:55:53.284Z,18.77
2019-03-29T10:58:23.288Z,17.33
2019-03-29T11:00:53.442Z,16.60
2019-03-29T11:03:28.432Z,11.07
2019-03-29T11:05:57.557Z,13.40
2019-03-29T11:08:28.679Z,15.00
2019-03-29T11:10:59.039Z,19.17
2019-03-29T11:13:29.586Z,16.37
2019-03-29T11:16:00.246Z,17.70
2019-03-29T11:18:30.838Z,16.70
2019-03-29T11:21:01.454Z,16.47
2019-03-29T11:23:32.239Z,14.13
2019-03-29T11:26:05.620Z,14.47
2019-03-29T11:28:35.904Z,15.60
2019-03-29T11:31:06.494Z,16.60
2019-03-29T11:33:36.596Z,17.07
2019-03-29T11:36:07.181Z,18.17
2019-03-29T11:38:37.481Z,17.03
2019-03-29T11:41:07.902Z,25.23
2019-03-29T11:43:39.074Z,18.63
2019-03-29T11:46:09.993Z,17.93
2019-03-29T11:48:40.980Z,17.10
2019-03-29T11:51:19.236Z,14.20
2019-03-29T11:53:44.578Z,17.70
2019-03-29T11:56:15.409Z,13.87
2019-03-29T11:58:46.063Z,13.37
2019-03-29T12:01:16.907Z,17.57
2019-03-29T12:03:48.237Z,16.77
2019-03-29T12:06:18.587Z,18.20
2019-03-29T12:08:49.317Z,13.90
2019-03-29T12:11:19.946Z,14.23
2019-03-29T12:13:50.489Z,17.87
2019-03-29T12:16:20.407Z,16.77
2019-03-29T12:18:51.332Z,17.73
2019-03-29T12:21:21.521Z,18.63
2019-03-29T12:23:51.603Z,17.63
2019-03-29T12:26:21.481Z,21.47
2019-03-29T12:28:52.529Z,23.70
2019-03-29T12:31:22.564Z,24.97
2019-03-29T12:33:52.870Z,24.73
2019-03-29T12:36:23.679Z,12.93
2019-03-29T12:38:54.734Z,15.93
2019-03-29T12:41:25.347Z,17.53
2019-03-29T12:43:56.176Z,20.77
2019-03-29T12:46:26.925Z,16.73
2019-03-29T12:48:57.528Z,12.90
2019-03-29T12:51:28.245Z,15.93
2019-03-29T12:53:58.598Z,21.23
2019-03-29T12:56:28.529Z,22.10
2019-03-29T12:58:58.978Z,21.13
2019-03-29T13:01:39.363Z,14.47
2019-03-29T13:04:01.521Z,17.50
2019-03-29T13:06:32.236Z,18.27
2019-03-29T13:09:02.521Z,13.87
2019-03-29T13:11:32.533Z,16.93
2019-03-29T13:14:10.291Z,20.07
2019-03-29T13:16:34.809Z,13.50
2019-03-29T13:19:05.479Z,14.30
2019-03-29T13:21:38.770Z,17.67
2019-03-29T13:24:07.845Z,14.90
2019-03-29T13:26:38.516Z,14.10
2019-03-29T13:29:08.855Z,12.70
2019-03-29T13:31:39.428Z,14.67
2019-03-29T13:34:09.925Z,18.20
2019-03-29T13:36:40.203Z,13.07
2019-03-29T13:39:10.730Z,16.50
2019-03-29T13:41:41.126Z,18.73
2019-03-29T13:44:23.226Z,16.37
2019-03-29T13:46:44.169Z,15.80
2019-03-29T13:49:14.365Z,14.90
2019-03-29T13:51:45.246Z,13.47
2019-03-29T13:54:15.563Z,16.70
2019-03-29T13:56:45.603Z,13.70
2019-03-29T13:59:16.646Z,16.00
2019-03-29T14:01:47.021Z,14.67
2019-03-29T14:04:17.263Z,17.73
2019-03-29T14:06:47.599Z,16.93
2019-03-29T14:09:18.565Z,15.47
2019-03-29T14:11:48.500Z,13.00
2019-03-29T14:14:18.535Z,11.17
2019-03-29T14:16:48.446Z,17.83
2019-03-29T14:19:19.226Z,15.90
2019-03-29T14:21:49.201Z,15.13
2019-03-29T14:24:19.866Z,15.10
2019-03-29T14:26:50.210Z,14.90
2019-03-29T14:29:21.023Z,23.10
2019-03-29T14:31:54.042Z,17.80
2019-03-29T14:34:23.647Z,13.47
2019-03-29T14:36:53.665Z,14.00
2019-03-29T14:39:23.829Z,12.23
2019-03-29T14:41:53.762Z,13.93
2019-03-29T14:44:24.821Z,19.03
2019-03-29T14:46:55.011Z,10.60
2019-03-29T14:49:25.295Z,14.87
2019-03-29T14:51:55.661Z,9.30
2019-03-29T14:54:25.881Z,9.80
2019-03-29T14:56:56.564Z,12.90
2019-03-29T14:59:30.039Z,8.97
2019-03-29T15:02:00.437Z,13.57
2019-03-29T15:04:31.009Z,10.17
2019-03-29T15:07:01.482Z,12.20
2019-03-29T15:09:32.349Z,15.50
2019-03-29T15:12:02.286Z,14.73
2019-03-29T15:14:33.300Z,13.93
2019-03-29T15:17:03.577Z,13.10
2019-03-29T15:19:33.941Z,12.70
2019-03-29T15:22:04.159Z,15.53
2019-03-29T15:24:35.266Z,13.20
2019-03-29T15:27:06.044Z,15.03
2019-03-29T15:29:36.803Z,19.27
2019-03-29T15:32:06.833Z,15.57
2019-03-29T15:34:37.812Z,14.80
2019-03-29T15:37:10.176Z,17.83
2019-03-29T15:39:40.338Z,19.90
2019-03-29T15:42:10.488Z,15.33
2019-03-29T15:44:41.743Z,16.70
2019-03-29T15:47:12.240Z,14.87
2019-03-29T15:49:55.371Z,17.43
2019-03-29T15:52:14.193Z,16.07
2019-03-29T15:54:44.105Z,16.33
2019-03-29T15:57:14.912Z,17.00
2019-03-29T15:59:45.637Z,16.00
2019-03-29T16:02:16.439Z,20.37
2019-03-29T16:04:47.246Z,16.67
2019-03-29T16:07:17.864Z,18.07
2019-03-29T16:09:48.497Z,16.30
2019-03-29T16:12:21.381Z,16.00
2019-03-29T16:14:51.259Z,16.23
2019-03-29T16:17:21.926Z,15.13
2019-03-29T16:19:52.919Z,15.20
2019-03-29T16:22:23.997Z,13.10
2019-03-29T16:24:54.325Z,14.03
2019-03-29T16:27:25.289Z,15.87
2019-03-29T16:29:56.813Z,14.33
2019-03-29T16:32:28.086Z,9.50
2019-03-29T16:34:58.389Z,10.10
2019-03-29T16:37:29.013Z,14.87
2019-03-29T16:39:59.626Z,11.45
2019-03-29T16:42:29.972Z,13.50
2019-03-29T16:45:00.342Z,18.07
2019-03-29T16:47:30.384Z,14.73
2019-03-29T16:50:01.176Z,16.70
2019-03-29T16:52:31.396Z,11.80
2019-03-29T16:55:12.514Z,17.33
2019-03-29T16:57:33.644Z,15.43
2019-03-29T17:00:04.418Z,14.90
2019-03-29T17:02:34.668Z,16.37
2019-03-29T17:05:04.970Z,19.03
2019-03-29T17:07:35.193Z,17.23
2019-03-29T17:10:06.137Z,15.60
2019-03-29T17:12:36.541Z,14.70
2019-03-29T17:15:07.372Z,16.63
2019-03-29T17:17:37.780Z,12.40
2019-03-29T17:20:09.337Z,15.37
2019-03-29T17:22:42.882Z,15.40
2019-03-29T17:25:11.954Z,14.77
2019-03-29T17:27:42.570Z,13.33
2019-03-29T17:30:16.581Z,19.73
2019-03-29T17:32:46.729Z,15.10
2019-03-29T17:35:16.665Z,17.60
2019-03-29T17:37:47.711Z,19.40
2019-03-29T17:40:18.115Z,17.30
2019-03-29T17:42:49.333Z,16.83
2019-03-29T17:45:19.942Z,17.27
2019-03-29T17:47:50.649Z,19.17
2019-03-29T17:50:21.001Z,16.90
2019-03-29T17:52:51.706Z,15.50
2019-03-29T17:55:22.337Z,19.13
2019-03-29T17:57:52.846Z,18.70
2019-03-29T18:00:24.385Z,20.30
2019-03-29T18:02:55.232Z,17.63
2019-03-29T18:05:25.711Z,20.40
2019-03-29T18:07:55.864Z,16.97
2019-03-29T18:10:26.072Z,19.97
2019-03-29T18:12:56.841Z,16.20
2019-03-29T18:15:27.508Z,19.90
2019-03-29T18:17:57.875Z,25.53
2019-03-29T18:20:28.118Z,21.40
2019-03-29T18:22:58.571Z,25.63
2019-03-29T18:25:29.144Z,21.37
2019-03-29T18:28:00.143Z,23.63
2019-03-29T18:30:39.112Z,23.40
2019-03-29T18:33:09.709Z,18.93
2019-03-29T18:35:40.747Z,22.03
2019-03-29T18:38:11.800Z,24.37
2019-03-29T18:40:41.988Z,21.37
2019-03-29T18:43:12.740Z,20.20
2019-03-29T18:45:43.353Z,31.40
2019-03-29T18:48:14.096Z,22.20
2019-03-29T18:50:44.656Z,23.77
2019-03-29T18:53:14.961Z,26.23
2019-03-29T18:55:46.310Z,25.20
2019-03-29T18:58:17.073Z,30.90
2019-03-29T19:00:47.825Z,20.30
2019-03-29T19:03:18.533Z,19.80
2019-03-29T19:05:48.957Z,25.10
2019-03-29T19:08:19.897Z,23.30
2019-03-29T19:10:50.093Z,20.47
2019-03-29T19:13:20.442Z,20.83
2019-03-29T19:15:51.189Z,26.00
2019-03-29T19:18:21.849Z,19.50
2019-03-29T19:20:52.367Z,23.70
2019-03-29T19:23:22.249Z,27.60
2019-03-29T19:25:52.665Z,26.20
2019-03-29T19:28:23.566Z,20.07
2019-03-29T19:30:54.080Z,27.67
2019-03-29T19:33:24.776Z,25.70
2019-03-29T19:35:55.553Z,30.77
2019-03-29T19:38:25.864Z,25.50
2019-03-29T19:40:56.197Z,26.87
2019-03-29T19:43:26.288Z,26.30
2019-03-29T19:45:57.218Z,29.50
2019-03-29T19:48:28.247Z,21.80
2019-03-29T19:50:59.539Z,25.27
2019-03-29T19:53:29.941Z,27.53
2019-03-29T19:56:01.077Z,30.27
2019-03-29T19:58:31.809Z,19.80
2019-03-29T20:01:01.768Z,24.57
2019-03-29T20:03:32.294Z,25.17
2019-03-29T20:06:03.349Z,22.67
2019-03-29T20:08:35.177Z,25.10
2019-03-29T20:11:05.998Z,26.70
2019-03-29T20:13:36.256Z,23.63
2019-03-29T20:16:06.790Z,28.90
2019-03-29T20:18:37.326Z,23.30
2019-03-29T20:21:07.926Z,26.13
2019-03-29T20:23:38.438Z,26.33
2019-03-29T20:26:08.565Z,31.07
2019-03-29T20:28:38.940Z,20.63
2019-03-29T20:31:09.557Z,31.43
2019-03-29T20:33:40.633Z,23.80
2019-03-29T20:36:11.136Z,29.83
2019-03-29T20:38:41.348Z,24.47
2019-03-29T20:41:11.979Z,24.23
2019-03-29T20:43:42.615Z,25.80
2019-03-29T20:46:13.966Z,26.60
2019-03-29T20:48:44.194Z,22.07
2019-03-29T20:51:14.457Z,26.80
2019-03-29T20:53:44.688Z,27.33
2019-03-29T20:56:15.049Z,25.73
2019-03-29T20:58:45.500Z,26.30
2019-03-29T21:01:16.605Z,33.20
2019-03-29T21:03:46.674Z,29.30
2019-03-29T21:06:16.949Z,31.63
2019-03-29T21:08:48.287Z,27.77
2019-03-29T21:11:18.529Z,18.07
2019-03-29T21:13:49.167Z,32.17
2019-03-29T21:16:19.611Z,28.57
2019-03-29T21:18:49.980Z,28.77
2019-03-29T21:21:20.290Z,36.20
2019-03-29T21:23:50.753Z,33.80
2019-03-29T21:26:21.237Z,29.83
2019-03-29T21:28:53.081Z,30.60
2019-03-29T21:31:23.851Z,27.07
2019-03-29T21:33:54.458Z,27.87
2019-03-29T21:36:25.199Z,33.77
2019-03-29T21:38:55.790Z,19.97
2019-03-29T21:41:27.361Z,30.33
2019-03-29T21:43:57.241Z,28.70
2019-03-29T21:46:28.241Z,26.90
2019-03-29T21:48:58.533Z,21.53
2019-03-29T21:51:29.137Z,28.47
2019-03-29T21:53:59.832Z,34.30
2019-03-29T21:56:30.700Z,29.03
2019-03-29T21:59:01.474Z,31.33
2019-03-29T22:01:32.847Z,34.20
2019-03-29T22:04:03.487Z,24.53
2019-03-29T22:06:33.704Z,28.80
2019-03-29T22:09:06.202Z,35.03
2019-03-29T22:11:36.578Z,35.30
2019-03-29T22:14:06.517Z,29.53
2019-03-29T22:16:36.738Z,27.90
2019-03-29T22:19:07.245Z,29.47
2019-03-29T22:21:38.211Z,33.83
2019-03-29T22:24:08.849Z,27.63
2019-03-29T22:26:39.740Z,25.40
2019-03-29T22:29:09.698Z,24.70
2019-03-29T22:31:40.445Z,26.37
2019-03-29T22:34:10.650Z,22.20
2019-03-29T22:36:41.437Z,25.23
2019-03-29T22:39:11.788Z,30.43
2019-03-29T22:41:42.350Z,26.60
2019-03-29T22:44:13.186Z,20.10
2019-03-29T22:46:44.173Z,25.63
2019-03-29T22:49:14.528Z,31.80
2019-03-29T22:51:45.264Z,22.70
2019-03-29T22:54:15.899Z,26.37
2019-03-29T22:56:46.640Z,26.03
2019-03-29T22:59:17.136Z,28.77
2019-03-29T23:01:48.769Z,32.27
2019-03-29T23:04:18.633Z,28.90
2019-03-29T23:06:48.952Z,24.70
2019-03-29T23:09:21.551Z,26.80
2019-03-29T23:11:52.838Z,27.77
2019-03-29T23:14:23.845Z,20.80
2019-03-29T23:16:54.641Z,22.90
2019-03-29T23:19:25.165Z,31.10
2019-03-29T23:21:55.824Z,34.67
2019-03-29T23:24:26.532Z,34.57
2019-03-29T23:26:57.046Z,32.30
2019-03-29T23:29:27.268Z,32.67
2019-03-29T23:31:57.863Z,31.87
2019-03-29T23:34:28.170Z,25.27
2019-03-29T23:36:58.831Z,36.60
2019-03-29T23:39:29.113Z,32.00
2019-03-29T23:41:59.684Z,27.03
2019-03-29T23:44:30.324Z,28.80
2019-03-29T23:47:00.887Z,38.27
2019-03-29T23:49:31.053Z,29.10
2019-03-29T23:52:01.266Z,33.77
2019-03-29T23:54:32.010Z,31.93
2019-03-29T23:57:02.292Z,34.43
2019-03-29T23:59:33.040Z,30.60
